createdAt,value
2022-10-30T00:00:40.545Z,12.20
2022-10-30T00:03:13.407Z,12.20
2022-10-30T00:05:40.917Z,12.30
2022-10-30T00:10:34.866Z,12.30
2022-10-30T00:13:02.545Z,12.40
2022-10-30T00:15:29.295Z,12.40
2022-10-30T00:17:56.479Z,12.40
2022-10-30T00:20:23.670Z,12.50
2022-10-30T00:22:50.460Z,12.40
2022-10-30T00:25:17.424Z,12.20
2022-10-30T00:27:44.160Z,12.40
2022-10-30T00:30:11.753Z,12.40
2022-10-30T00:32:38.538Z,12.50
2022-10-30T00:35:05.600Z,12.40
2022-10-30T00:37:32.343Z,12.60
2022-10-30T00:39:59.052Z,12.50
2022-10-30T00:42:30.284Z,12.50
2022-10-30T00:44:57.047Z,12.40
2022-10-30T00:47:35.728Z,12.40
2022-10-30T00:50:19.358Z,12.50
2022-10-30T00:52:56.959Z,12.50
2022-10-30T00:55:31.851Z,12.90
2022-10-30T00:58:01.458Z,12.60
2022-10-30T01:00:29.409Z,12.50
2022-10-30T01:02:57.668Z,12.40
2022-10-30T01:05:27.684Z,12.40
2022-10-30T01:07:54.699Z,12.40
2022-10-30T01:10:22.327Z,12.40
2022-10-30T01:12:51.395Z,12.60
2022-10-30T01:15:23.347Z,12.40
2022-10-30T01:18:13.391Z,12.20
2022-10-30T01:21:00.747Z,12.30
2022-10-30T01:23:27.455Z,12.30
2022-10-30T01:26:10.015Z,12.30
2022-10-30T01:29:03.049Z,12.40
2022-10-30T01:31:38.683Z,12.40
2022-10-30T01:34:17.603Z,12.40
2022-10-30T01:37:13.772Z,12.30
2022-10-30T01:39:41.538Z,12.40
2022-10-30T01:42:31.090Z,12.40
2022-10-30T01:44:58.294Z,12.40
2022-10-30T01:47:47.531Z,12.40
2022-10-30T01:50:37.639Z,12.40
2022-10-30T01:53:28.034Z,12.30
2022-10-30T01:55:54.715Z,12.40
2022-10-30T01:58:59.993Z,12.30
2022-10-30T02:01:29.017Z,12.30
2022-10-30T02:03:55.982Z,12.20
2022-10-30T02:06:22.941Z,12.20
2022-10-30T02:08:49.664Z,12.20
2022-10-30T02:11:17.058Z,12.20
2022-10-30T02:13:44.085Z,12.20
2022-10-30T02:16:11.082Z,12.20
2022-10-30T02:18:37.911Z,12.20
2022-10-30T02:21:04.837Z,12.30
2022-10-30T02:23:32.944Z,12.20
2022-10-30T02:25:59.840Z,12.30
2022-10-30T02:28:26.700Z,12.30
2022-10-30T02:30:53.515Z,12.30
2022-10-30T02:33:20.364Z,12.30
2022-10-30T02:35:47.126Z,12.30
2022-10-30T02:38:13.854Z,12.30
2022-10-30T02:40:40.574Z,12.30
2022-10-30T02:43:07.368Z,12.30
2022-10-30T02:45:36.947Z,12.30
2022-10-30T02:48:04.019Z,12.30
2022-10-30T02:50:30.955Z,12.30
2022-10-30T02:52:59.542Z,12.30
2022-10-30T02:55:26.642Z,12.30
2022-10-30T02:57:54.565Z,12.30
2022-10-30T03:00:21.367Z,12.30
2022-10-30T03:02:48.252Z,12.20
2022-10-30T03:05:15.056Z,12.10
2022-10-30T03:07:41.838Z,12.20
2022-10-30T03:10:09.001Z,12.20
2022-10-30T03:12:35.735Z,10.60
2022-10-30T03:15:02.634Z,12.30
2022-10-30T03:17:30.094Z,12.10
2022-10-30T03:19:56.948Z,12.20
2022-10-30T03:22:23.785Z,12.10
2022-10-30T03:24:50.494Z,11.90
2022-10-30T03:27:17.503Z,12.10
2022-10-30T03:29:44.212Z,12.10
2022-10-30T03:32:11.743Z,12.10
2022-10-30T03:34:38.740Z,12.20
2022-10-30T03:37:05.545Z,11.90
2022-10-30T03:39:32.279Z,12.00
2022-10-30T03:41:59.123Z,12.00
2022-10-30T03:44:25.861Z,12.20
2022-10-30T03:46:52.620Z,12.00
2022-10-30T03:49:19.331Z,12.00
2022-10-30T03:51:46.074Z,12.00
2022-10-30T03:54:12.834Z,12.00
2022-10-30T03:56:39.663Z,12.00
2022-10-30T03:59:06.389Z,12.00
2022-10-30T04:01:33.295Z,11.90
2022-10-30T04:04:00.143Z,11.90
2022-10-30T04:06:27.010Z,11.70
2022-10-30T04:08:55.397Z,11.90
2022-10-30T04:11:22.244Z,11.90
2022-10-30T04:13:48.999Z,11.90
2022-10-30T04:16:15.807Z,11.90
2022-10-30T04:18:42.573Z,11.90
2022-10-30T04:21:09.267Z,12.00
2022-10-30T04:23:36.123Z,11.90
2022-10-30T04:26:02.933Z,11.90
2022-10-30T04:28:29.652Z,11.90
2022-10-30T04:30:56.639Z,11.90
2022-10-30T04:33:23.425Z,11.80
2022-10-30T04:35:50.146Z,11.90
2022-10-30T04:38:19.634Z,11.80
2022-10-30T04:40:46.596Z,11.90
2022-10-30T04:43:14.104Z,11.80
2022-10-30T04:45:41.633Z,11.80
2022-10-30T04:48:16.577Z,11.80
2022-10-30T04:50:44.119Z,12.00
2022-10-30T04:53:16.622Z,11.80
2022-10-30T04:55:44.545Z,11.80
2022-10-30T04:58:12.496Z,11.80
2022-10-30T05:00:39.530Z,11.70
2022-10-30T05:03:06.424Z,11.60
2022-10-30T05:05:33.211Z,11.50
2022-10-30T05:08:00.420Z,11.50
2022-10-30T05:10:27.701Z,11.50
2022-10-30T05:12:54.593Z,11.30
2022-10-30T05:15:21.809Z,11.40
2022-10-30T05:17:53.000Z,11.80
2022-10-30T05:20:19.835Z,11.40
2022-10-30T05:22:46.818Z,11.10
2022-10-30T05:25:13.632Z,11.20
2022-10-30T05:27:40.377Z,11.10
2022-10-30T05:30:07.760Z,10.80
2022-10-30T05:32:34.425Z,11.10
2022-10-30T05:35:01.151Z,11.00
2022-10-30T05:37:28.095Z,11.00
2022-10-30T05:39:54.920Z,10.90
2022-10-30T05:42:21.872Z,11.30
2022-10-30T05:45:00.964Z,10.80
2022-10-30T05:47:28.736Z,10.80
2022-10-30T05:49:55.500Z,10.70
2022-10-30T05:52:22.338Z,10.70
2022-10-30T05:54:49.104Z,10.70
2022-10-30T05:57:15.857Z,10.70
2022-10-30T05:59:42.633Z,10.60
2022-10-30T06:02:09.449Z,10.60
2022-10-30T06:04:36.285Z,10.60
2022-10-30T06:07:02.988Z,10.50
2022-10-30T06:09:29.878Z,10.30
2022-10-30T06:11:56.715Z,10.30
2022-10-30T06:14:23.495Z,11.10
2022-10-30T06:16:50.316Z,10.30
2022-10-30T06:19:18.776Z,10.30
2022-10-30T06:21:46.326Z,10.20
2022-10-30T06:24:13.697Z,11.40
2022-10-30T06:26:40.922Z,10.20
2022-10-30T06:29:07.917Z,10.30
2022-10-30T06:31:34.705Z,10.20
2022-10-30T06:34:01.426Z,10.30
2022-10-30T06:36:28.217Z,10.30
2022-10-30T06:41:26.073Z,10.30
2022-10-30T06:43:57.191Z,10.20
2022-10-30T06:46:27.054Z,10.30
2022-10-30T06:48:57.509Z,10.40
2022-10-30T06:51:24.530Z,10.90
2022-10-30T06:56:18.536Z,10.30
2022-10-30T06:58:45.300Z,10.50
2022-10-30T07:01:12.136Z,11.00
2022-10-30T07:03:38.813Z,10.50
2022-10-30T07:06:05.924Z,10.30
2022-10-30T07:08:32.729Z,10.70
2022-10-30T07:10:59.550Z,12.30
2022-10-30T07:13:26.297Z,10.40
2022-10-30T07:15:53.161Z,11.00
2022-10-30T07:18:20.034Z,11.00
2022-10-30T07:20:46.828Z,11.00
2022-10-30T07:23:13.596Z,10.90
2022-10-30T07:25:40.349Z,11.00
2022-10-30T07:28:07.152Z,11.00
2022-10-30T07:30:33.909Z,11.00
2022-10-30T07:33:02.977Z,11.00
2022-10-30T07:35:30.899Z,11.20
2022-10-30T07:38:05.668Z,11.10
2022-10-30T07:40:33.243Z,11.20
2022-10-30T07:43:01.953Z,11.30
2022-10-30T07:45:29.817Z,11.80
2022-10-30T07:47:57.086Z,11.40
2022-10-30T07:50:24.656Z,11.50
2022-10-30T07:52:51.426Z,11.70
2022-10-30T07:55:18.166Z,11.60
2022-10-30T07:57:45.028Z,11.70
2022-10-30T08:00:14.380Z,11.90
2022-10-30T08:02:42.111Z,12.00
2022-10-30T08:05:09.811Z,12.10
2022-10-30T08:07:38.016Z,12.60
2022-10-30T08:10:06.477Z,12.20
2022-10-30T08:12:34.510Z,12.30
2022-10-30T08:15:01.746Z,14.40
2022-10-30T08:19:57.114Z,12.80
2022-10-30T08:22:24.470Z,12.90
2022-10-30T08:24:51.468Z,13.00
2022-10-30T08:29:45.529Z,13.40
2022-10-30T08:32:12.314Z,13.70
2022-10-30T08:34:39.176Z,13.60
2022-10-30T08:37:07.935Z,13.70
2022-10-30T08:39:34.666Z,13.80
2022-10-30T08:42:01.476Z,14.10
2022-10-30T08:44:28.255Z,14.00
2022-10-30T08:46:55.034Z,14.20
2022-10-30T08:49:21.801Z,14.30
2022-10-30T08:51:48.649Z,15.20
2022-10-30T08:54:15.365Z,14.60
2022-10-30T08:59:09.276Z,15.00
2022-10-30T09:01:36.834Z,15.20
2022-10-30T09:04:04.263Z,15.40
2022-10-30T09:06:31.940Z,15.70
2022-10-30T09:08:58.789Z,15.70
2022-10-30T09:11:25.721Z,16.00
2022-10-30T09:13:52.539Z,16.20
2022-10-30T09:16:19.310Z,16.30
2022-10-30T09:18:46.078Z,16.50
2022-10-30T09:21:12.831Z,16.70
2022-10-30T09:23:39.576Z,17.00
2022-10-30T09:28:33.645Z,17.60
2022-10-30T09:31:01.809Z,18.10
2022-10-30T09:35:55.904Z,18.40
2022-10-30T09:38:22.701Z,18.50
2022-10-30T09:40:52.332Z,18.80
2022-10-30T09:43:46.237Z,19.30
2022-10-30T09:46:12.983Z,19.20
2022-10-30T09:51:49.454Z,21.70
2022-10-30T09:54:44.203Z,22.80
2022-10-30T09:57:30.911Z,23.70
2022-10-30T10:00:10.495Z,24.80
2022-10-30T10:03:06.366Z,25.40
2022-10-30T10:05:44.890Z,25.90
2022-10-30T10:08:19.364Z,26.40
2022-10-30T10:10:52.827Z,26.80
2022-10-30T10:13:44.843Z,27.20
2022-10-30T10:16:14.399Z,27.60
2022-10-30T10:19:06.121Z,28.30
2022-10-30T10:21:37.378Z,29.40
2022-10-30T10:24:11.902Z,29.70
2022-10-30T10:26:44.691Z,29.90
2022-10-30T10:29:22.255Z,30.80
2022-10-30T10:32:17.725Z,31.10
2022-10-30T10:34:56.425Z,31.20
2022-10-30T10:37:45.739Z,30.90
2022-10-30T10:40:38.882Z,30.00
2022-10-30T10:43:30.272Z,30.00
2022-10-30T10:46:29.615Z,29.70
2022-10-30T10:48:56.304Z,29.80
2022-10-30T10:51:29.964Z,29.90
2022-10-30T10:54:20.069Z,30.90
2022-10-30T10:56:49.540Z,31.70
2022-10-30T10:59:21.260Z,32.70
2022-10-30T11:02:10.947Z,32.70
2022-10-30T11:04:45.542Z,33.10
2022-10-30T11:07:26.341Z,34.90
2022-10-30T11:09:54.839Z,35.60
2022-10-30T11:12:33.880Z,35.80
2022-10-30T11:15:10.147Z,35.80
2022-10-30T11:17:45.542Z,36.20
2022-10-30T11:20:18.585Z,36.30
2022-10-30T11:22:51.341Z,36.40
2022-10-30T11:25:27.031Z,36.30
2022-10-30T11:28:00.484Z,35.80
2022-10-30T11:30:28.915Z,35.20
2022-10-30T11:32:57.320Z,35.70
2022-10-30T11:35:25.357Z,36.60
2022-10-30T11:38:13.291Z,37.20
2022-10-30T11:40:46.546Z,37.50
2022-10-30T11:43:18.904Z,37.50
2022-10-30T11:45:45.826Z,37.30
2022-10-30T11:48:28.049Z,37.20
2022-10-30T11:51:02.460Z,36.70
2022-10-30T11:53:38.626Z,37.00
2022-10-30T11:56:22.251Z,37.80
2022-10-30T11:58:55.602Z,36.60
2022-10-30T12:01:39.206Z,36.20
2022-10-30T12:04:24.210Z,36.20
2022-10-30T12:07:18.536Z,36.30
2022-10-30T12:09:47.067Z,36.20
2022-10-30T12:12:19.810Z,36.50
2022-10-30T12:14:46.695Z,36.10
2022-10-30T12:17:16.829Z,35.80
2022-10-30T12:19:53.531Z,36.30
2022-10-30T12:22:33.985Z,36.30
2022-10-30T12:25:04.326Z,36.20
2022-10-30T12:27:36.750Z,36.30
2022-10-30T12:30:10.871Z,37.10
2022-10-30T12:33:04.356Z,37.30
2022-10-30T12:35:40.199Z,37.40
2022-10-30T12:38:31.942Z,37.40
2022-10-30T12:41:17.597Z,37.40
2022-10-30T12:43:52.127Z,36.80
2022-10-30T12:46:30.334Z,35.60
2022-10-30T12:49:13.352Z,34.80
2022-10-30T12:52:01.388Z,34.70
2022-10-30T12:54:39.574Z,34.80
2022-10-30T12:57:17.021Z,34.90
2022-10-30T12:59:56.718Z,34.50
2022-10-30T13:02:38.316Z,34.30
2022-10-30T13:05:32.505Z,34.60
2022-10-30T13:08:11.166Z,34.70
2022-10-30T13:10:46.066Z,34.20
2022-10-30T13:13:22.096Z,33.50
2022-10-30T13:15:52.529Z,33.10
2022-10-30T13:18:22.196Z,32.60
2022-10-30T13:20:56.179Z,32.20
2022-10-30T13:23:34.173Z,32.00
2022-10-30T13:26:06.861Z,31.90
2022-10-30T13:28:44.108Z,32.00
2022-10-30T13:31:21.728Z,31.70
2022-10-30T13:34:16.075Z,31.90
2022-10-30T13:36:57.869Z,31.50
2022-10-30T13:39:34.137Z,30.90
2022-10-30T13:42:27.806Z,30.30
2022-10-30T13:45:06.369Z,29.90
2022-10-30T13:48:05.002Z,29.70
2022-10-30T13:51:01.925Z,29.70
2022-10-30T13:53:33.459Z,30.00
2022-10-30T13:56:00.539Z,30.10
2022-10-30T13:58:46.288Z,30.20
2022-10-30T14:01:37.215Z,30.20
2022-10-30T14:04:12.224Z,29.90
2022-10-30T14:06:53.504Z,29.40
2022-10-30T14:09:45.508Z,28.80
2022-10-30T14:12:54.105Z,28.40
2022-10-30T14:15:43.001Z,27.90
2022-10-30T14:18:12.868Z,27.30
2022-10-30T14:20:41.322Z,26.70
2022-10-30T14:23:19.995Z,26.20
2022-10-30T14:26:05.471Z,25.70
2022-10-30T14:28:35.725Z,25.20
2022-10-30T14:31:08.808Z,24.90
2022-10-30T14:33:55.695Z,24.50
2022-10-30T14:36:26.983Z,24.30
2022-10-30T14:39:00.854Z,24.10
2022-10-30T14:41:32.099Z,23.80
2022-10-30T14:44:13.777Z,23.50
2022-10-30T14:47:09.834Z,23.30
2022-10-30T14:49:42.179Z,22.80
2022-10-30T14:52:27.586Z,22.50
2022-10-30T14:55:24.602Z,22.30
2022-10-30T14:58:21.034Z,22.00
2022-10-30T15:00:48.345Z,21.80
2022-10-30T15:03:52.528Z,21.60
2022-10-30T15:06:42.555Z,21.30
2022-10-30T15:09:16.948Z,21.20
2022-10-30T15:11:52.688Z,21.10
2022-10-30T15:14:52.547Z,20.80
2022-10-30T15:17:40.045Z,20.80
2022-10-30T15:20:14.868Z,20.30
2022-10-30T15:22:42.223Z,20.10
2022-10-30T15:25:44.152Z,19.70
2022-10-30T15:28:18.711Z,19.50
2022-10-30T15:31:04.154Z,19.50
2022-10-30T15:33:32.504Z,19.00
2022-10-30T15:36:00.007Z,18.90
2022-10-30T15:38:26.980Z,18.80
2022-10-30T15:40:59.665Z,18.70
2022-10-30T15:43:37.410Z,18.30
2022-10-30T15:46:10.128Z,18.20
2022-10-30T15:48:41.020Z,17.90
2022-10-30T15:51:16.806Z,17.70
2022-10-30T15:53:43.561Z,17.70
2022-10-30T15:56:29.155Z,17.30
2022-10-30T15:59:06.756Z,17.10
2022-10-30T16:01:54.887Z,16.90
2022-10-30T16:04:33.171Z,16.80
2022-10-30T16:07:04.397Z,16.60
2022-10-30T16:09:31.204Z,16.50
2022-10-30T16:12:00.494Z,16.10
2022-10-30T16:14:34.458Z,16.00
2022-10-30T16:17:01.844Z,16.00
2022-10-30T16:19:31.405Z,15.80
2022-10-30T16:21:59.436Z,15.60
2022-10-30T16:24:36.023Z,15.60
2022-10-30T16:27:14.114Z,15.50
2022-10-30T16:29:41.916Z,15.40
2022-10-30T16:34:45.632Z,15.10
2022-10-30T16:37:20.788Z,15.00
2022-10-30T16:39:50.717Z,15.00
2022-10-30T16:42:26.897Z,15.00
2022-10-30T16:45:32.188Z,15.00
2022-10-30T16:48:09.322Z,15.20
2022-10-30T16:50:38.441Z,14.90
2022-10-30T16:53:18.303Z,14.90
2022-10-30T16:55:45.368Z,14.70
2022-10-30T16:58:14.755Z,14.80
2022-10-30T17:00:48.224Z,14.40
2022-10-30T17:03:15.078Z,14.40
2022-10-30T17:05:47.145Z,14.40
2022-10-30T17:08:16.752Z,15.20
2022-10-30T17:10:43.499Z,14.30
2022-10-30T17:13:33.483Z,14.20
2022-10-30T17:16:12.523Z,14.30
2022-10-30T17:18:39.289Z,14.20
2022-10-30T17:21:11.849Z,14.10
2022-10-30T17:23:48.600Z,14.00
2022-10-30T17:26:15.857Z,13.90
2022-10-30T17:28:43.282Z,13.90
2022-10-30T17:31:42.764Z,13.80
2022-10-30T17:34:14.312Z,13.90
2022-10-30T17:36:41.647Z,13.80
2022-10-30T17:39:09.209Z,13.80
2022-10-30T17:41:36.778Z,13.70
2022-10-30T17:44:05.152Z,13.60
2022-10-30T17:46:32.156Z,13.70
2022-10-30T17:48:59.816Z,13.90
2022-10-30T17:51:26.844Z,13.50
2022-10-30T17:53:53.703Z,13.40
2022-10-30T17:56:27.722Z,13.20
2022-10-30T17:58:55.259Z,13.30
2022-10-30T18:01:24.869Z,13.20
2022-10-30T18:03:54.969Z,13.20
2022-10-30T18:06:24.914Z,13.00
2022-10-30T18:08:53.272Z,13.10
2022-10-30T18:11:22.190Z,13.00
2022-10-30T18:13:50.495Z,13.00
2022-10-30T18:16:19.140Z,13.00
2022-10-30T18:18:46.034Z,12.90
2022-10-30T18:21:23.181Z,13.10
2022-10-30T18:23:52.712Z,12.90
2022-10-30T18:26:23.233Z,12.90
2022-10-30T18:28:50.108Z,12.80
2022-10-30T18:31:19.564Z,12.90
2022-10-30T18:33:47.346Z,12.90
2022-10-30T18:36:24.953Z,12.90
2022-10-30T18:38:52.858Z,13.00
2022-10-30T18:41:33.450Z,12.60
2022-10-30T18:44:00.594Z,12.90
2022-10-30T18:46:29.466Z,12.90
2022-10-30T18:48:56.338Z,12.90
2022-10-30T18:51:25.705Z,12.80
2022-10-30T18:53:52.782Z,12.70
2022-10-30T18:56:24.791Z,12.80
2022-10-30T18:58:56.428Z,12.70
2022-10-30T19:01:28.645Z,12.70
2022-10-30T19:03:55.539Z,12.70
2022-10-30T19:06:24.164Z,12.70
2022-10-30T19:08:51.041Z,12.50
2022-10-30T19:11:24.660Z,12.40
2022-10-30T19:13:53.406Z,12.30
2022-10-30T19:16:20.820Z,12.40
2022-10-30T19:18:48.590Z,12.20
2022-10-30T19:21:18.430Z,12.10
2022-10-30T19:23:45.750Z,12.10
2022-10-30T19:26:17.130Z,12.10
2022-10-30T19:28:44.897Z,12.10
2022-10-30T19:31:15.037Z,12.30
2022-10-30T19:33:42.248Z,12.00
2022-10-30T19:36:27.501Z,12.10
2022-10-30T19:38:54.727Z,12.10
2022-10-30T19:41:21.698Z,12.10
2022-10-30T19:43:48.519Z,12.10
2022-10-30T19:46:15.505Z,12.00
2022-10-30T19:48:59.533Z,11.90
2022-10-30T19:51:28.165Z,12.00
2022-10-30T19:53:54.990Z,12.00
2022-10-30T19:56:22.438Z,12.10
2022-10-30T19:58:49.736Z,12.10
2022-10-30T20:03:44.226Z,12.30
2022-10-30T20:06:12.490Z,12.10
2022-10-30T20:08:39.596Z,12.20
2022-10-30T20:11:06.506Z,12.20
2022-10-30T20:13:33.765Z,12.10
2022-10-30T20:16:04.673Z,12.10
2022-10-30T20:18:34.830Z,12.20
2022-10-30T20:21:04.179Z,12.30
2022-10-30T20:23:31.198Z,12.40
2022-10-30T20:26:00.929Z,12.90
2022-10-30T20:28:36.540Z,12.60
2022-10-30T20:31:04.236Z,12.80
2022-10-30T20:33:31.105Z,12.70
2022-10-30T20:35:58.090Z,12.80
2022-10-30T20:38:29.070Z,14.60
2022-10-30T20:40:56.649Z,13.00
2022-10-30T20:43:37.773Z,12.70
2022-10-30T20:46:07.080Z,12.70
2022-10-30T20:48:33.845Z,12.60
2022-10-30T20:51:01.814Z,12.50
2022-10-30T20:53:29.971Z,12.40
2022-10-30T20:55:56.846Z,12.30
2022-10-30T20:58:24.247Z,12.30
2022-10-30T21:00:53.381Z,12.40
2022-10-30T21:03:20.175Z,12.50
2022-10-30T21:05:53.765Z,12.60
2022-10-30T21:08:20.504Z,13.50
2022-10-30T21:10:47.217Z,12.90
2022-10-30T21:13:13.980Z,13.00
2022-10-30T21:15:42.600Z,13.00
2022-10-30T21:18:11.191Z,13.20
2022-10-30T21:20:38.323Z,13.30
2022-10-30T21:23:06.246Z,13.70
2022-10-30T21:25:33.236Z,13.20
2022-10-30T21:28:00.924Z,13.20
2022-10-30T21:30:28.593Z,13.30
2022-10-30T21:32:55.393Z,13.40
2022-10-30T21:35:22.198Z,13.50
2022-10-30T21:37:49.149Z,13.40
2022-10-30T21:40:15.988Z,13.40
2022-10-30T21:42:42.737Z,13.40
2022-10-30T21:45:10.310Z,13.20
2022-10-30T21:47:37.075Z,13.60
2022-10-30T21:50:07.565Z,13.00
2022-10-30T21:52:36.225Z,13.50
2022-10-30T21:55:03.158Z,12.90
2022-10-30T21:57:30.173Z,12.90
2022-10-30T21:59:58.930Z,13.00
2022-10-30T22:02:28.536Z,12.30
2022-10-30T22:04:55.244Z,13.10
2022-10-30T22:07:22.037Z,13.00
2022-10-30T22:09:48.822Z,13.10
2022-10-30T22:12:15.640Z,13.40
2022-10-30T22:14:42.431Z,13.10
2022-10-30T22:19:36.324Z,13.90
2022-10-30T22:22:03.160Z,13.50
2022-10-30T22:24:29.899Z,12.60
2022-10-30T22:26:56.650Z,10.40
2022-10-30T22:29:23.400Z,13.30
2022-10-30T22:31:50.280Z,13.40
2022-10-30T22:34:17.043Z,13.40
2022-10-30T22:36:43.865Z,13.70
2022-10-30T22:39:13.300Z,13.40
2022-10-30T22:41:40.936Z,13.50
2022-10-30T22:44:11.684Z,13.50
2022-10-30T22:46:39.139Z,13.50
2022-10-30T22:49:06.851Z,13.40
2022-10-30T22:51:35.401Z,13.30
2022-10-30T22:54:04.199Z,13.20
2022-10-30T22:56:33.956Z,13.20
2022-10-30T22:59:14.546Z,13.10
2022-10-30T23:01:41.986Z,12.90
2022-10-30T23:04:11.101Z,13.40
2022-10-30T23:06:38.258Z,12.50
2022-10-30T23:09:08.587Z,12.40
2022-10-30T23:11:35.820Z,12.30
2022-10-30T23:14:02.596Z,12.20
2022-10-30T23:16:29.615Z,12.20
2022-10-30T23:18:58.537Z,12.00
2022-10-30T23:21:28.008Z,12.00
2022-10-30T23:23:55.568Z,12.50
2022-10-30T23:26:24.801Z,11.80
2022-10-30T23:28:53.929Z,11.80
2022-10-30T23:31:29.466Z,11.70
2022-10-30T23:33:58.739Z,11.70
2022-10-30T23:36:25.792Z,11.90
2022-10-30T23:39:03.906Z,11.70
2022-10-30T23:41:32.132Z,11.90
2022-10-30T23:44:01.976Z,11.90
2022-10-30T23:46:29.196Z,12.20
2022-10-30T23:48:55.950Z,12.10
2022-10-30T23:51:23.361Z,12.10
2022-10-30T23:53:50.654Z,12.70
2022-10-30T23:56:18.364Z,12.10
2022-10-30T23:58:47.047Z,12.20
